Time;durP1;ratioP1;P1;durP2;ratioP2;P2;SDS_P1;SDS_P2;PMS_P1;PMS_P2;Temp;Humidity;BMP_temperature;BMP_pressure;BME280_temperature;BME280_humidity;BME280_pressure;Samples;Min_cycle;Max_cycle;Signal;HPM_P1;HPM_P2
2023/08/31 00:01:34;;;;;;;3.90;3.70;;;16.30;99.90;;;16.43;90.51;100709.81;5040581;28;20080;-78
2023/08/31 00:04:04;;;;;;;3.35;3.20;;;16.10;99.90;;;16.47;89.51;100707.00;5051980;28;20403;-78
2023/08/31 00:06:32;;;;;;;3.50;3.40;;;16.10;99.90;;;16.36;88.64;100701.09;5042711;28;20036;-79
2023/08/31 00:09:00;;;;;;;3.45;3.35;;;16.10;99.90;;;16.34;88.13;100702.94;5044097;28;20316;-78
2023/08/31 00:11:29;;;;;;;3.88;3.67;;;16.10;99.90;;;16.44;87.21;100704.41;5050842;28;20055;-79
2023/08/31 00:13:58;;;;;;;3.47;3.38;;;16.10;99.90;;;16.46;86.42;100702.59;5038946;28;20067;-79
2023/08/31 00:16:27;;;;;;;3.50;3.40;;;16.20;99.90;;;16.40;85.46;100699.22;5047193;28;20119;-79
2023/08/31 00:18:57;;;;;;;3.67;3.55;;;16.10;99.90;;;16.40;85.61;100694.75;5033665;28;20061;-78
2023/08/31 00:21:25;;;;;;;3.45;3.35;;;16.20;99.90;;;16.44;85.18;100691.06;5051010;28;20536;-78
2023/08/31 00:23:54;;;;;;;4.22;3.92;;;16.20;99.90;;;16.49;84.33;100681.13;5035573;28;20045;-79
2023/08/31 00:26:22;;;;;;;3.10;3.00;;;16.20;99.90;;;16.59;83.63;100677.25;5034832;28;20099;-79
2023/08/31 00:28:51;;;;;;;3.00;2.90;;;16.30;99.90;;;16.63;83.62;100672.69;5035115;28;20418;-78
2023/08/31 00:31:21;;;;;;;3.55;3.45;;;16.30;99.90;;;16.67;83.97;100679.69;5034125;28;20072;-79
2023/08/31 00:33:50;;;;;;;3.85;3.65;;;16.40;99.90;;;16.69;84.12;100675.16;5034927;28;20360;-79
2023/08/31 00:36:19;;;;;;;3.58;3.47;;;16.40;99.90;;;16.72;84.18;100683.09;5035125;28;20046;-79
2023/08/31 00:38:47;;;;;;;3.88;3.67;;;16.40;99.90;;;16.74;84.11;100671.41;5034708;28;20057;-78
2023/08/31 00:41:16;;;;;;;3.20;3.10;;;16.50;99.90;;;16.77;84.18;100676.69;5034887;28;20546;-79
2023/08/31 00:43:45;;;;;;;3.42;3.33;;;16.50;99.90;;;16.75;84.08;100683.88;5034775;28;20132;-80
2023/08/31 00:46:15;;;;;;;3.20;3.10;;;16.50;99.90;;;16.73;83.91;100675.03;5034712;28;20047;-79
2023/08/31 00:48:45;;;;;;;3.03;2.92;;;16.50;99.90;;;16.72;83.64;100681.31;5034312;28;20041;-79
2023/08/31 00:51:13;;;;;;;3.55;3.45;;;16.40;99.90;;;16.70;83.39;100677.81;5034532;28;20128;-80
2023/08/31 00:53:42;;;;;;;3.88;3.67;;;16.40;99.90;;;16.67;83.21;100679.69;5034683;28;20041;-78
2023/08/31 00:56:11;;;;;;;3.15;3.05;;;16.40;99.90;;;16.64;83.09;100683.34;5033962;28;20406;-77
2023/08/31 00:58:40;;;;;;;3.30;3.20;;;16.40;99.90;;;16.60;83.02;100668.34;5033953;28;20045;-79
2023/08/31 01:01:15;;;;;;;3.33;3.22;;;16.30;99.90;;;16.51;82.81;100668.63;5033779;28;20399;-79
2023/08/31 01:03:54;;;;;;;3.28;3.17;;;16.20;99.90;;;16.45;83.00;100678.59;5034374;28;20045;-78
2023/08/31 01:06:52;;;;;;;3.53;3.42;;;16.20;99.90;;;16.36;83.12;100670.88;5034135;28;20403;-78
2023/08/31 01:09:32;;;;;;;3.05;2.95;;;16.10;99.90;;;16.28;83.08;100666.66;5038809;28;20106;-78
2023/08/31 01:12:04;;;;;;;;;;;16.10;99.90;;;16.33;83.13;100678.97;5044127;28;20045;-78
2023/08/31 01:14:40;;;;;;;3.03;2.92;;;16.10;99.90;;;16.28;82.96;100684.44;5049573;28;19932;-77
2023/08/31 01:17:09;;;;;;;3.25;3.15;;;16.00;99.90;;;16.24;83.48;100678.34;5036952;28;20057;-78
2023/08/31 01:19:49;;;;;;;3.47;3.38;;;15.90;99.90;;;16.19;84.09;100676.72;5045397;28;20439;-77
2023/08/31 01:22:30;;;;;;;3.00;2.90;;;15.90;99.90;;;16.17;84.52;100670.56;5049259;28;20053;-77
2023/08/31 01:25:04;;;;;;;3.20;3.10;;;15.90;99.90;;;16.13;84.86;100674.25;5037770;28;20050;-78
2023/08/31 01:27:33;;;;;;;3.15;3.05;;;15.90;99.90;;;16.09;85.42;100676.13;5044043;28;20049;-78
2023/08/31 01:30:02;;;;;;;3.33;3.22;;;15.80;99.90;;;16.07;85.62;100677.09;5047113;28;20069;-78
2023/08/31 01:32:30;;;;;;;3.63;3.42;;;15.80;99.90;;;16.09;85.98;100669.91;5037540;28;20065;-78
2023/08/31 01:35:05;;;;;;;3.42;3.33;;;15.80;99.90;;;16.04;86.24;100671.88;5048466;28;20045;-79
2023/08/31 01:37:44;;;;;;;3.33;3.22;;;15.70;99.90;;;15.99;86.82;100663.97;5043604;28;20106;-78
2023/08/31 01:40:20;;;;;;;3.75;3.60;;;15.70;99.90;;;16.09;86.81;100669.91;5038139;28;20049;-78
2023/08/31 01:42:49;;;;;;;3.00;2.90;;;15.70;99.90;;;16.11;86.55;100668.97;5038191;28;20048;-78
2023/08/31 01:45:23;;;;;;;3.35;3.25;;;15.80;99.90;;;16.15;86.34;100669.75;5044885;28;20116;-78
2023/08/31 01:47:51;;;;;;;3.38;3.28;;;15.80;99.90;;;16.18;86.41;100675.84;5047582;28;20044;-79
2023/08/31 01:50:20;;;;;;;3.33;3.22;;;15.90;99.90;;;16.21;86.17;100677.56;5037377;28;20111;-79
2023/08/31 01:52:48;;;;;;;3.28;3.17;;;15.90;99.90;;;16.20;85.94;100676.69;5047664;28;20080;-79
2023/08/31 01:55:19;;;;;;;3.35;3.25;;;16.00;99.90;;;16.31;86.09;100683.50;5043390;28;20051;-79
2023/08/31 01:57:47;;;;;;;3.25;3.15;;;16.00;99.90;;;16.35;85.86;100688.69;5037489;28;20111;-79
2023/08/31 02:00:26;;;;;;;3.25;3.15;;;16.00;99.90;;;16.41;86.00;100682.28;5048498;28;20037;-79
2023/08/31 02:02:56;;;;;;;4.00;3.80;;;16.10;99.90;;;16.43;86.09;100683.13;5033013;28;20088;-78
2023/08/31 02:05:25;;;;;;;3.25;3.15;;;16.10;99.90;;;16.40;86.25;100683.19;5045190;28;20126;-79
2023/08/31 02:07:54;;;;;;;3.30;3.20;;;16.10;99.90;;;16.48;86.47;100691.84;5035107;28;20057;-78
2023/08/31 02:10:26;;;;;;;3.40;3.30;;;16.10;99.90;;;16.48;86.30;100687.41;5047368;28;20099;-79
2023/08/31 02:12:54;;;;;;;;;;;16.20;99.90;;;16.54;86.51;100689.91;5041961;28;20037;-79
2023/08/31 02:15:22;;;;;;;3.38;3.28;;;16.20;99.90;;;16.55;86.33;100685.44;5039563;28;19925;-78
2023/08/31 02:17:51;;;;;;;3.33;3.22;;;16.20;99.90;;;16.57;86.04;100687.13;5049214;28;20103;-79
2023/08/31 02:20:20;;;;;;;3.08;2.97;;;16.30;99.90;;;16.51;86.00;100694.47;5037793;28;20128;-79
2023/08/31 02:22:49;;;;;;;3.10;3.00;;;16.30;99.90;;;16.61;85.92;100683.44;5042061;28;20077;-79
2023/08/31 02:25:17;;;;;;;3.13;3.03;;;16.30;99.90;;;16.60;85.66;100687.03;5046038;28;20038;-77
2023/08/31 02:27:48;;;;;;;3.50;3.40;;;16.30;99.90;;;16.63;85.44;100684.25;5036505;28;20453;-79
2023/08/31 02:30:17;;;;;;;3.10;3.00;;;16.30;99.90;;;16.62;85.17;100677.19;5045216;28;20046;-79
2023/08/31 02:32:45;;;;;;;3.40;3.30;;;16.40;99.90;;;16.70;85.03;100682.28;5031296;28;20057;-80
2023/08/31 02:35:15;;;;;;;2.95;2.85;;;16.40;99.90;;;16.68;84.78;100676.09;5046054;28;20135;-79
2023/08/31 02:37:43;;;;;;;3.20;3.10;;;16.40;99.90;;;16.71;84.30;100679.56;5036359;28;20403;-78
2023/08/31 02:40:12;;;;;;;3.13;3.03;;;16.40;99.90;;;16.66;84.35;100683.28;5046310;28;20115;-80
2023/08/31 02:42:41;;;;;;;2.95;2.85;;;16.40;99.90;;;16.66;83.98;100683.28;5043506;28;20091;-80
2023/08/31 02:45:11;;;;;;;3.25;3.15;;;16.40;99.90;;;16.58;83.96;100685.34;5037652;28;20080;-79
2023/08/31 02:47:39;;;;;;;2.97;2.88;;;16.30;99.90;;;16.59;84.42;100679.94;5051181;28;20095;-79
2023/08/31 02:50:09;;;;;;;3.15;3.05;;;16.30;99.90;;;16.61;84.18;100680.75;5044259;28;20096;-80
2023/08/31 02:52:37;;;;;;;3.10;3.00;;;16.30;99.90;;;16.65;83.63;100681.53;5043895;28;20041;-80
2023/08/31 02:55:07;;;;;;;3.33;3.22;;;16.40;99.90;;;16.68;83.20;100690.34;5035397;28;20049;-80
2023/08/31 02:57:35;;;;;;;3.20;3.10;;;16.40;99.90;;;16.60;82.51;100665.69;5048950;28;20045;-79
2023/08/31 03:00:08;;;;;;;3.45;3.35;;;16.40;99.90;;;16.75;81.90;100683.00;5040426;28;20656;-80
2023/08/31 03:02:38;;;;;;;3.33;3.22;;;16.50;99.90;;;16.81;81.29;100689.00;5038056;28;20570;-80
2023/08/31 03:05:08;;;;;;;3.00;2.90;;;16.50;99.90;;;16.77;79.96;100682.03;5031588;28;20050;-79
2023/08/31 03:07:36;;;;;;;3.80;3.53;;;16.60;99.90;;;16.75;80.07;100683.00;5046684;28;20041;-80
2023/08/31 03:10:06;;;;;;;3.22;3.13;;;16.50;99.90;;;16.80;79.31;100681.91;5047279;28;20041;-80
2023/08/31 03:12:35;;;;;;;3.33;3.22;;;16.60;99.90;;;16.85;78.68;100685.31;5050738;28;20053;-80
2023/08/31 03:15:05;;;;;;;3.28;3.17;;;16.60;99.90;;;16.92;78.20;100669.94;5036168;28;20493;-80
2023/08/31 03:17:34;;;;;;;;;;;16.70;99.90;;;16.95;78.00;100680.53;5045856;28;20111;-79
2023/08/31 03:20:06;;;;;;;3.10;3.00;;;16.70;99.90;;;16.93;77.65;100672.59;5030645;28;19925;-80
2023/08/31 03:22:34;;;;;;;3.15;3.05;;;16.70;99.90;;;17.00;77.49;100679.47;5046577;28;20133;-80
2023/08/31 03:25:04;;;;;;;3.13;3.03;;;16.80;99.90;;;17.01;77.30;100675.84;5034300;28;20060;-80
2023/08/31 03:27:32;;;;;;;3.20;3.10;;;16.70;99.90;;;16.93;77.77;100669.91;5045236;28;20104;-80
2023/08/31 03:30:02;;;;;;;2.80;2.70;;;16.70;99.90;;;16.99;77.24;100672.34;5041606;28;20199;-77
2023/08/31 03:32:30;;;;;;;2.90;2.80;;;16.70;99.90;;;17.03;77.27;100674.00;5036460;28;20064;-80
2023/08/31 03:34:59;;;;;;;2.90;2.80;;;16.80;99.90;;;17.01;76.91;100672.31;5050384;28;20351;-80
2023/08/31 03:37:29;;;;;;;3.17;3.08;;;16.80;99.90;;;17.01;77.11;100680.34;5043269;28;20054;-79
2023/08/31 03:39:57;;;;;;;3.20;3.10;;;16.70;99.90;;;16.98;76.73;100675.97;5046907;28;20073;-78
2023/08/31 03:42:26;;;;;;;3.38;3.28;;;16.70;99.90;;;17.04;76.37;100681.09;5047922;28;20750;-80
2023/08/31 03:44:54;;;;;;;3.50;3.40;;;16.80;99.90;;;17.11;76.28;100682.63;5030823;28;20116;-80
2023/08/31 03:47:24;;;;;;;3.08;2.97;;;16.80;99.90;;;17.13;75.86;100688.81;5030724;28;20096;-79
2023/08/31 03:49:53;;;;;;;3.40;3.30;;;16.90;99.90;;;17.13;76.22;100687.91;5042878;28;20509;-78
2023/08/31 03:52:22;;;;;;;3.70;3.60;;;16.90;99.90;;;16.45;76.14;100582.50;5033839;28;20053;-80
2023/08/31 03:54:52;;;;;;;4.30;3.90;;;16.80;99.90;;;17.09;75.97;100688.97;5047326;28;20037;-80
2023/08/31 03:57:21;;;;;;;3.10;3.00;;;16.80;99.90;;;17.08;75.42;100693.44;5039496;28;20383;-80
2023/08/31 03:59:52;;;;;;;3.83;3.63;;;16.90;99.90;;;17.03;75.58;100686.50;5036810;28;20411;-80
2023/08/31 04:02:20;;;;;;;3.85;3.65;;;16.80;99.90;;;16.95;75.97;100686.78;5047667;28;20134;-79
2023/08/31 04:04:48;;;;;;;3.40;3.30;;;16.70;99.90;;;17.13;75.53;100707.50;5047918;28;20041;-80
2023/08/31 04:07:17;;;;;;;3.20;3.10;;;16.80;99.90;;;17.21;75.35;100699.22;5044644;28;20132;-80
2023/08/31 04:09:45;;;;;;;3.13;3.03;;;16.90;99.90;;;17.17;75.14;100697.59;5040096;28;20046;-80
2023/08/31 04:12:15;;;;;;;2.88;2.78;;;16.90;99.90;;;17.20;74.89;100701.97;5051617;28;20061;-80
2023/08/31 04:14:44;;;;;;;2.90;2.80;;;17.00;99.90;;;17.19;75.46;100710.94;5041243;28;20053;-80
2023/08/31 04:17:12;;;;;;;2.75;2.65;;;16.90;99.90;;;17.18;75.06;100704.69;5044222;28;20061;-80
2023/08/31 04:19:40;;;;;;;3.47;3.28;;;16.90;99.90;;;17.08;75.66;100703.25;5050520;28;20434;-80
2023/08/31 04:22:09;;;;;;;3.22;3.13;;;16.90;99.90;;;17.16;75.46;100709.22;5051217;28;20045;-80
2023/08/31 04:24:37;;;;;;;3.70;3.50;;;16.90;99.90;;;17.29;75.24;100706.97;5041017;28;20045;-80
2023/08/31 04:27:06;;;;;;;3.40;3.30;;;17.00;99.90;;;17.31;74.83;100711.34;5044472;28;20069;-81
2023/08/31 04:29:35;;;;;;;3.60;3.50;;;17.10;99.90;;;17.31;74.89;100718.50;5048855;28;20110;-80
2023/08/31 04:32:05;;;;;;;3.50;3.40;;;17.10;99.90;;;17.25;75.73;100716.91;5037866;28;20095;-80
2023/08/31 04:34:33;;;;;;;3.45;3.35;;;17.00;99.90;;;17.31;74.67;100714.03;5047621;28;20096;-81
2023/08/31 04:37:02;;;;;;;4.18;3.97;;;17.10;99.90;;;17.26;75.15;100720.47;5045633;28;20048;-79
2023/08/31 04:39:30;;;;;;;5.18;4.78;;;17.00;99.90;;;17.20;75.16;100720.69;5039065;28;20137;-81
2023/08/31 04:41:59;;;;;;;3.13;3.03;;;16.90;99.90;;;17.26;75.37;100723.16;5050970;28;20049;-80
2023/08/31 04:44:29;;;;;;;3.35;3.25;;;17.00;99.90;;;17.31;74.91;100721.16;5042004;28;20421;-81
2023/08/31 04:46:59;;;;;;;3.20;3.10;;;17.00;99.90;;;17.38;74.85;100728.06;5042340;28;20470;-79
2023/08/31 04:49:27;;;;;;;3.17;3.07;;;17.10;99.90;;;17.39;74.88;100724.47;5050004;28;20045;-80
2023/08/31 04:51:57;;;;;;;3.28;3.17;;;17.20;99.90;;;17.39;74.98;100735.16;5050908;28;20057;-80
2023/08/31 04:54:26;;;;;;;3.60;3.50;;;17.10;99.90;;;17.37;74.33;100731.66;5042648;28;20045;-80
2023/08/31 04:56:54;;;;;;;3.30;3.20;;;17.10;99.90;;;17.40;74.45;100731.56;5042092;28;20044;-79
2023/08/31 04:59:22;;;;;;;3.47;3.38;;;17.10;99.90;;;17.13;75.11;100734.25;5050379;28;20122;-79
2023/08/31 05:01:51;;;;;;;3.13;3.03;;;17.00;99.90;;;17.25;75.24;100729.44;5038405;28;20037;-80
2023/08/31 05:04:20;;;;;;;3.25;3.15;;;16.90;99.90;;;17.25;75.32;100732.09;5045881;28;20057;-79
2023/08/31 05:06:49;;;;;;;3.23;3.13;;;17.00;99.90;;;17.24;74.91;100739.25;5047014;28;20041;-78
2023/08/31 05:09:18;;;;;;;3.60;3.50;;;17.00;99.90;;;17.24;74.97;100741.03;5037633;28;20095;-80
2023/08/31 05:11:47;;;;;;;3.92;3.72;;;17.00;99.90;;;17.33;74.64;100752.28;5048979;28;20064;-80
2023/08/31 05:14:15;;;;;;;3.40;3.30;;;17.00;99.90;;;17.30;74.41;100756.88;5043128;28;20110;-80
2023/08/31 05:16:44;;;;;;;3.42;3.33;;;17.00;99.90;;;17.28;74.54;100753.38;5040097;28;20042;-81
2023/08/31 05:19:12;;;;;;;3.53;3.42;;;17.00;99.90;;;17.25;74.52;100758.84;5050565;28;20052;-81
2023/08/31 05:21:42;;;;;;;3.13;3.03;;;17.00;99.90;;;17.29;74.44;100757.78;5049468;28;20411;-80
2023/08/31 05:24:10;;;;;;;3.87;3.67;;;17.00;99.90;;;17.23;74.57;100755.34;5052698;28;20152;-80
2023/08/31 05:26:40;;;;;;;3.30;3.20;;;16.90;99.90;;;17.29;74.29;100758.66;5040260;28;20042;-81
2023/08/31 05:29:08;;;;;;;2.97;2.88;;;17.00;99.90;;;17.38;74.26;100763.69;5050865;28;20076;-80
2023/08/31 05:31:37;;;;;;;3.22;3.13;;;17.10;99.90;;;17.34;74.57;100764.75;5047949;28;20442;-80
2023/08/31 05:34:05;;;;;;;3.35;3.25;;;17.10;99.90;;;17.30;75.41;100770.25;5044101;28;20065;-78
2023/08/31 05:36:34;;;;;;;3.50;3.40;;;17.00;99.90;;;17.36;76.15;100775.38;5039356;28;20485;-80
2023/08/31 05:39:04;;;;;;;3.03;2.92;;;17.10;99.90;;;17.39;75.71;100773.47;5050038;28;20394;-80
2023/08/31 05:41:32;;;;;;;3.70;3.50;;;17.10;99.90;;;17.30;76.32;100762.22;5040012;28;20040;-80
2023/08/31 05:44:00;;;;;;;3.20;3.10;;;17.00;99.90;;;17.36;76.22;100772.72;5042226;28;20065;-80
2023/08/31 05:46:29;;;;;;;3.42;3.33;;;17.10;99.90;;;17.36;75.52;100773.59;5048243;28;20060;-80
2023/08/31 05:48:57;;;;;;;3.35;3.25;;;17.00;99.90;;;17.31;76.14;100775.53;5036926;28;20054;-79
2023/08/31 05:51:26;;;;;;;3.60;3.50;;;17.00;99.90;;;17.53;75.62;100779.28;5046849;28;20033;-80
2023/08/31 05:53:54;;;;;;;3.10;3.00;;;17.20;99.90;;;17.68;75.32;100784.09;5044388;28;20140;-81
2023/08/31 05:56:24;;;;;;;3.38;3.28;;;17.40;99.90;;;17.81;74.41;100790.75;5037761;28;20038;-79
2023/08/31 05:58:54;;;;;;;3.58;3.47;;;17.50;99.90;;;17.93;73.86;100776.94;5049366;28;20104;-79
2023/08/31 06:01:23;;;;;;;3.15;3.05;;;17.70;99.90;;;18.19;73.13;100791.19;5048635;28;20049;-79
2023/08/31 06:03:51;;;;;;;3.33;3.22;;;17.90;99.90;;;18.34;71.84;100793.28;5044847;28;20056;-80
2023/08/31 06:06:20;;;;;;;3.38;3.28;;;18.00;99.90;;;18.69;69.89;100800.91;5037026;28;20052;-80
2023/08/31 06:08:48;;;;;;;3.15;3.05;;;18.30;99.90;;;18.96;69.49;100809.66;5033304;28;20056;-81
2023/08/31 06:11:17;;;;;;;3.33;3.22;;;18.60;99.90;;;19.16;68.94;100799.03;5032851;28;20073;-81
2023/08/31 06:13:46;;;;;;;3.15;3.05;;;18.90;99.90;;;19.51;68.63;100799.31;5033044;28;20430;-80
2023/08/31 06:16:15;;;;;;;3.33;3.23;;;19.20;99.90;;;19.62;67.31;100804.25;5032693;28;20042;-81
2023/08/31 06:18:43;;;;;;;3.03;2.92;;;19.30;99.90;;;19.93;66.55;100809.16;5033234;28;20611;-81
2023/08/31 06:21:11;;;;;;;3.15;3.05;;;19.60;99.90;;;20.11;65.52;100805.69;5031860;28;20049;-81
2023/08/31 06:23:40;;;;;;;2.80;2.70;;;19.70;99.90;;;20.26;64.77;100819.34;5040939;28;20492;-81
2023/08/31 06:26:08;;;;;;;3.58;3.47;;;19.90;99.90;;;20.27;65.02;100820.19;5032733;28;20073;-81
2023/08/31 06:28:37;;;;;;;2.92;2.83;;;20.00;99.90;;;20.30;64.21;100820.06;5031952;28;20133;-81
2023/08/31 06:31:07;;;;;;;2.72;2.63;;;20.00;99.90;;;20.27;63.89;100813.00;5032702;28;20049;-81
2023/08/31 06:33:35;;;;;;;3.03;2.93;;;20.00;99.90;;;20.24;63.89;100812.28;5032750;28;20088;-79
2023/08/31 06:36:04;;;;;;;2.97;2.88;;;20.00;99.90;;;20.15;63.58;100813.50;5031219;28;20347;-81
2023/08/31 06:38:33;;;;;;;2.60;2.50;;;19.90;99.90;;;20.54;65.05;100817.13;5032497;28;20096;-79
2023/08/31 06:41:04;;;;;;;2.92;2.83;;;20.20;99.90;;;20.79;64.50;100824.91;5032291;28;20452;-79
2023/08/31 06:43:33;;;;;;;2.88;2.78;;;20.40;99.90;;;21.05;63.51;100826.41;5031214;28;20099;-74
2023/08/31 06:46:01;;;;;;;2.70;2.60;;;20.70;99.90;;;21.09;61.98;100820.81;5032178;28;20099;-72
2023/08/31 06:48:50;;;;;;;2.70;2.60;;;20.80;99.90;;;21.05;60.43;100824.59;5032735;28;20077;-71
2023/08/31 06:51:18;;;;;;;2.40;2.30;;;20.80;99.90;;;21.19;60.37;100832.88;5031817;28;20044;-73
2023/08/31 06:53:49;;;;;;;;;;;20.90;99.90;;;21.33;60.98;100829.53;5048754;28;20051;-79
2023/08/31 06:56:17;;;;;;;3.60;3.40;;;21.00;99.90;;;21.38;60.65;100832.84;5037657;28;20015;-80
2023/08/31 06:58:45;;;;;;;2.70;2.60;;;21.10;99.90;;;21.42;60.55;100850.59;5042799;28;20064;-72
2023/08/31 07:01:14;;;;;;;2.90;2.80;;;21.10;99.90;;;21.37;61.40;100837.34;5047420;28;20050;-71
2023/08/31 07:03:43;;;;;;;2.65;2.55;;;21.10;99.90;;;21.38;60.38;100840.91;5048486;28;20045;-72
2023/08/31 07:06:12;;;;;;;3.78;3.58;;;21.00;99.90;;;21.30;60.34;100846.69;5037454;28;20047;-74
2023/08/31 07:08:42;;;;;;;2.30;2.20;;;21.00;99.90;;;21.61;61.29;100839.75;5042296;28;20068;-69
2023/08/31 07:11:10;;;;;;;2.60;2.50;;;21.30;99.90;;;21.61;59.18;100827.19;5046001;28;20144;-70
2023/08/31 07:13:38;;;;;;;2.45;2.35;;;21.40;99.90;;;21.98;60.23;100853.16;5034748;28;20593;-69
2023/08/31 07:16:10;;;;;;;3.17;2.97;;;21.70;99.90;;;21.72;58.99;100848.19;5045416;28;20038;-66
2023/08/31 07:18:38;;;;;;;3.33;3.22;;;21.50;99.90;;;21.44;59.80;100854.06;5043052;28;20056;-70
2023/08/31 07:21:08;;;;;;;2.72;2.63;;;21.20;99.90;;;21.18;59.61;100867.91;5037292;28;20438;-70
2023/08/31 07:23:40;;;;;;;4.03;3.35;;;21.00;99.90;;;21.05;59.62;100851.50;5048374;28;20053;-69
2023/08/31 07:26:08;;;;;;;3.20;3.10;;;20.80;99.90;;;20.94;59.74;100847.53;5039803;28;20053;-70
2023/08/31 07:28:37;;;;;;;2.95;2.85;;;20.70;99.90;;;21.07;58.82;100854.09;5040121;28;20076;-73
2023/08/31 07:31:06;;;;;;;2.92;2.83;;;20.80;99.90;;;20.88;58.51;100855.88;5047684;28;20068;-73
2023/08/31 07:33:35;;;;;;;2.88;2.78;;;20.70;99.90;;;20.76;59.52;100851.06;5031930;28;20065;-71
2023/08/31 07:36:06;;;;;;;2.30;2.20;;;20.50;99.90;;;21.02;59.43;100861.53;5032483;28;20046;-70
2023/08/31 07:38:35;;;;;;;2.90;2.80;;;20.70;99.90;;;21.05;57.72;100873.03;5032458;28;20063;-71
2023/08/31 07:41:05;;;;;;;2.92;2.83;;;20.80;99.90;;;20.43;57.96;100781.81;5035045;28;20126;-73
2023/08/31 07:43:33;;;;;;;2.65;2.55;;;20.70;99.90;;;20.68;57.79;100852.31;5036776;28;20099;-72
2023/08/31 07:46:01;;;;;;;2.78;2.67;;;20.60;99.90;;;20.92;58.09;100868.25;5036149;28;20395;-70
2023/08/31 07:48:30;;;;;;;3.10;3.00;;;20.70;99.90;;;21.17;58.63;100877.81;5036083;28;20049;-71
2023/08/31 07:50:58;;;;;;;2.88;2.78;;;20.90;99.90;;;21.02;59.08;100851.63;5036143;28;20048;-72
2023/08/31 07:53:27;;;;;;;3.17;3.08;;;21.00;99.90;;;21.60;59.32;100879.31;5036362;28;20329;-72
2023/08/31 07:55:57;;;;;;;2.83;2.72;;;21.30;99.90;;;21.86;58.27;100880.69;5035026;28;20518;-72
2023/08/31 07:58:27;;;;;;;2.90;2.80;;;21.60;99.90;;;22.10;59.32;100888.44;5035657;28;20045;-71
2023/08/31 08:00:57;;;;;;;2.78;2.67;;;21.90;99.90;;;22.13;57.79;100884.69;5035099;28;20422;-70
2023/08/31 08:03:26;;;;;;;22.05;3.78;;;22.00;99.90;;;22.20;57.05;100861.88;5035283;28;20087;-71
2023/08/31 08:05:54;;;;;;;2.63;2.53;;;22.20;99.90;;;22.61;57.17;100889.38;5035643;28;20041;-66
2023/08/31 08:08:22;;;;;;;2.53;2.42;;;22.40;99.90;;;22.79;56.01;100893.75;5035262;28;20049;-67
2023/08/31 08:10:53;;;;;;;2.60;2.50;;;22.60;99.90;;;22.57;54.85;100891.34;5035176;28;20045;-66
2023/08/31 08:13:22;;;;;;;2.70;2.60;;;22.50;99.90;;;22.49;56.67;100890.88;5035316;28;20056;-66
2023/08/31 08:15:51;;;;;;;2.70;2.60;;;22.30;99.90;;;22.50;56.72;100894.41;5046163;28;20102;-68
2023/08/31 08:18:20;;;;;;;2.70;2.60;;;22.40;99.90;;;22.66;56.93;100903.47;5039341;28;20049;-65
2023/08/31 08:20:51;;;;;;;2.67;2.58;;;22.50;99.90;;;22.88;55.22;100898.66;5051221;28;20187;-65
2023/08/31 08:23:21;;;;;;;2.53;2.42;;;22.70;99.90;;;22.81;53.93;100908.91;5042951;28;20055;-65
2023/08/31 08:25:50;;;;;;;2.92;2.83;;;22.70;99.90;;;22.58;54.67;100906.56;5041464;28;20046;-67
2023/08/31 08:28:18;;;;;;;2.65;2.55;;;22.50;99.90;;;22.44;55.10;100918.06;5051287;28;20124;-67
2023/08/31 08:30:47;;;;;;;2.70;2.60;;;22.30;99.90;;;22.40;55.15;100915.59;5039098;28;20111;-67
2023/08/31 08:33:18;;;;;;;3.13;3.03;;;22.30;99.90;;;21.75;54.22;100837.25;5046063;28;20391;-63
2023/08/31 08:35:49;;;;;;;2.67;2.58;;;22.10;99.90;;;21.82;54.37;100920.38;5047925;28;20039;-64
2023/08/31 08:38:20;;;;;;;2.78;2.67;;;21.70;99.90;;;21.58;55.27;100916.19;5037290;28;20101;-63
2023/08/31 08:40:53;;;;;;;2.97;2.88;;;21.50;99.90;;;21.61;54.74;100918.72;5048866;28;20073;-69
2023/08/31 08:43:27;;;;;;;3.05;2.95;;;21.50;99.90;;;21.58;56.46;100902.75;5050516;28;20071;-70
2023/08/31 08:45:56;;;;;;;2.78;2.67;;;21.50;99.90;;;21.95;56.60;100926.06;5050779;28;20075;-71
2023/08/31 08:48:26;;;;;;;2.58;2.47;;;21.70;99.90;;;21.82;55.87;100931.16;5038583;28;20159;-73
2023/08/31 08:50:56;;;;;;;2.80;2.70;;;21.80;99.90;;;21.90;54.83;100936.16;5045846;28;20053;-79
2023/08/31 08:53:24;;;;;;;2.70;2.60;;;21.70;99.90;;;22.32;55.63;100939.38;5046277;28;20045;-74
2023/08/31 08:55:52;;;;;;;2.40;2.30;;;22.10;99.90;;;22.31;54.09;100927.75;5037878;28;20076;-71
2023/08/31 08:58:21;;;;;;;2.83;2.72;;;22.10;99.90;;;22.41;54.70;100942.47;5037929;28;20053;-73
2023/08/31 09:00:49;;;;;;;2.40;2.30;;;22.20;99.90;;;22.63;55.24;100936.84;5045716;28;20410;-73
2023/08/31 09:03:18;;;;;;;2.70;2.60;;;22.40;99.90;;;22.66;54.54;100930.44;5046288;28;20041;-73
2023/08/31 09:05:48;;;;;;;2.83;2.72;;;22.50;99.90;;;22.49;54.40;100938.53;5037676;28;20530;-73
2023/08/31 09:08:16;;;;;;;3.40;3.20;;;22.30;99.90;;;22.60;53.06;100944.25;5048895;28;20406;-73
2023/08/31 09:10:45;;;;;;;2.50;2.40;;;22.30;99.90;;;22.78;52.31;100935.19;5042391;28;20075;-73
2023/08/31 09:13:16;;;;;;;3.38;2.72;;;22.50;99.90;;;22.57;52.73;100947.13;5040878;28;20387;-73
2023/08/31 09:15:48;;;;;;;2.50;2.40;;;22.30;99.90;;;22.74;53.66;100934.50;5050163;28;20098;-73
2023/08/31 09:18:24;;;;;;;2.70;2.60;;;22.50;99.90;;;22.47;53.27;100943.13;5039870;28;20057;-73
2023/08/31 09:20:56;;;;;;;3.00;2.85;;;22.30;99.90;;;22.36;53.06;100946.34;5042921;28;20415;-72
2023/08/31 09:23:25;;;;;;;2.42;2.33;;;22.10;99.90;;;21.85;54.34;100922.06;5049693;28;20473;-73
2023/08/31 09:25:56;;;;;;;2.80;2.70;;;21.80;99.90;;;21.58;55.58;100950.31;5037823;28;20067;-72
2023/08/31 09:28:29;;;;;;;2.47;2.38;;;21.40;99.90;;;21.72;55.25;100946.00;5045346;28;20045;-73
2023/08/31 09:31:07;;;;;;;2.55;2.45;;;21.40;99.90;;;21.91;54.46;100940.63;5047100;28;20041;-73
2023/08/31 09:33:37;;;;;;;2.80;2.70;;;21.60;99.90;;;21.90;54.02;100947.81;5035601;28;20491;-72
2023/08/31 09:36:08;;;;;;;2.67;2.57;;;21.70;99.90;;;22.02;53.82;100938.25;5047571;28;20073;-73
2023/08/31 09:38:43;;;;;;;2.67;2.58;;;21.80;99.90;;;22.15;54.98;100940.25;5044780;28;20049;-73
2023/08/31 09:41:11;;;;;;;3.13;3.03;;;21.90;99.90;;;21.75;53.42;100945.84;5037838;28;20100;-73
2023/08/31 09:43:40;;;;;;;2.83;2.72;;;21.60;99.90;;;22.47;53.86;100949.38;5033850;28;20037;-73
2023/08/31 09:46:10;;;;;;;2.60;2.50;;;22.00;99.90;;;22.17;52.82;100959.91;5033571;28;20111;-71
2023/08/31 09:48:41;;;;;;;;;;;22.00;99.90;;;21.59;53.85;100944.84;5033973;28;20042;-72
2023/08/31 09:51:12;;;;;;;2.92;2.83;;;21.50;99.90;;;21.66;53.50;100942.75;5033747;28;19924;-69
2023/08/31 09:53:42;;;;;;;2.80;2.70;;;21.40;99.90;;;21.46;53.86;100949.09;5033753;28;20045;-71
2023/08/31 09:56:14;;;;;;;3.28;3.08;;;21.20;99.90;;;21.43;54.09;100957.28;5033538;28;20072;-72
2023/08/31 09:58:44;;;;;;;2.83;2.72;;;21.10;99.90;;;21.34;53.86;100952.34;5033589;28;20113;-77
2023/08/31 10:01:13;;;;;;;2.85;2.75;;;21.00;99.90;;;21.06;55.17;100952.75;5034184;28;20082;-77
2023/08/31 10:03:57;;;;;;;3.38;3.28;;;20.80;99.90;;;21.21;55.26;100957.47;5037241;28;20057;-78
2023/08/31 10:06:28;;;;;;;2.67;2.58;;;20.90;99.90;;;21.22;54.64;100951.13;5032933;28;20045;-76
2023/08/31 10:08:57;;;;;;;2.83;2.72;;;21.00;99.90;;;21.39;54.80;100959.25;5032867;28;20212;-75
2023/08/31 10:11:26;;;;;;;11.93;3.20;;;21.10;99.90;;;21.44;55.36;100962.63;5032927;28;20049;-74
2023/08/31 10:13:56;;;;;;;20.13;3.30;;;21.20;99.90;;;21.64;54.95;100955.41;5032806;28;20041;-74
2023/08/31 10:16:27;;;;;;;2.92;2.83;;;21.40;99.90;;;21.38;54.32;100960.22;5033492;28;20128;-76
2023/08/31 10:18:56;;;;;;;3.08;2.97;;;21.30;99.90;;;21.44;55.49;100959.94;5033026;28;20140;-76
2023/08/31 10:21:25;;;;;;;2.92;2.83;;;21.20;99.90;;;21.70;55.21;100960.50;5032954;28;20083;-76
2023/08/31 10:23:55;;;;;;;3.38;3.28;;;21.40;99.90;;;21.93;53.95;100969.22;5033283;28;20054;-76